Wetterdaten: aktuell Donnerstag, 30.03.2023 23:40
Datum Zeit Temp. A. Feuchte A. Luftdruck Regen Wind Taupunkt Windchill Windben
30.03.2023 23:40 9,7 C 86 % 1011,0 hPa 0,0 l/m 5,3 km/h (1 Bft) 7,5 C 9,7 C 9,7 km/h (2 Bft)
30.03.2023 23:30 9,7 C 86 % 1011,1 hPa 0,0 l/m 6,7 km/h (2 Bft) 7,5 C 9,5 C 16,1 km/h (3 Bft)
30.03.2023 23:20 9,6 C 87 % 1011,3 hPa 0,4 l/m 7,4 km/h (2 Bft) 7,5 C 8,9 C 16,1 km/h (3 Bft)
30.03.2023 23:10 9,4 C 87 % 1011,5 hPa 1,6 l/m 7,8 km/h (2 Bft) 7,3 C 8,4 C 29,0 km/h (5 Bft)
30.03.2023 23:00 9,3 C 86 % 1011,3 hPa 0,0 l/m 4,2 km/h (1 Bft) 7,1 C 9,3 C 9,7 km/h (2 Bft)
30.03.2023 22:50 9,2 C 87 % 1011,2 hPa 0,0 l/m 3,1 km/h (1 Bft) 7,2 C 9,2 C 8,0 km/h (2 Bft)
30.03.2023 22:40 9,2 C 87 % 1011,2 hPa 0,0 l/m 3,9 km/h (1 Bft) 7,2 C 9,2 C 11,3 km/h (2 Bft)
30.03.2023 22:30 9,2 C 88 % 1011,3 hPa 0,0 l/m 4,1 km/h (1 Bft) 7,3 C 9,2 C 9,7 km/h (2 Bft)
30.03.2023 22:20 9,1 C 89 % 1011,2 hPa 0,0 l/m 4,6 km/h (1 Bft) 7,4 C 9,1 C 9,7 km/h (2 Bft)
30.03.2023 22:10 9,1 C 91 % 1011,4 hPa 0,0 l/m 3,5 km/h (1 Bft) 7,7 C 9,1 C 8,0 km/h (2 Bft)
30.03.2023 22:00 8,8 C 92 % 1011,4 hPa 0,0 l/m 3,4 km/h (1 Bft) 7,6 C 8,8 C 11,3 km/h (2 Bft)
30.03.2023 21:50 8,5 C 92 % 1011,4 hPa 0,0 l/m 0,4 km/h (0 Bft) 7,3 C 8,5 C 3,2 km/h (1 Bft)
30.03.2023 21:40 8,3 C 89 % 1011,3 hPa 0,0 l/m 0,4 km/h (0 Bft) 6,6 C 8,3 C 3,2 km/h (1 Bft)
30.03.2023 21:30 8,4 C 89 % 1011,1 hPa 0,0 l/m 0,0 km/h (0 Bft) 6,7 C 8,4 C 0,0 km/h (0 Bft)
30.03.2023 21:20 8,6 C 88 % 1011,1 hPa 0,0 l/m 1,7 km/h (1 Bft) 6,7 C 8,6 C 4,8 km/h (1 Bft)
30.03.2023 21:10 8,6 C 88 % 1011,1 hPa 0,0 l/m 3,4 km/h (1 Bft) 6,7 C 8,6 C 8,0 km/h (2 Bft)
30.03.2023 21:00 8,7 C 87 % 1011,0 hPa 0,0 l/m 1,8 km/h (1 Bft) 6,7 C 8,7 C 4,8 km/h (1 Bft)
30.03.2023 20:50 8,9 C 86 % 1011,0 hPa 0,0 l/m 0,7 km/h (0 Bft) 6,7 C 8,9 C 4,8 km/h (1 Bft)
30.03.2023 20:40 9,0 C 86 % 1010,9 hPa 0,0 l/m 0,0 km/h (0 Bft) 6,8 C 9,0 C 0,0 km/h (0 Bft)
30.03.2023 20:30 9,2 C 85 % 1010,8 hPa 0,0 l/m 0,0 km/h (0 Bft) 6,8 C 9,2 C 0,0 km/h (0 Bft)
30.03.2023 20:20 9,4 C 84 % 1010,8 hPa 0,0 l/m 0,0 km/h (0 Bft) 6,8 C 9,4 C 0,0 km/h (0 Bft)
_ Min-Zeit 21:40 06:30 17:00 - 07:30 04:50 19:20 07:30
Minimum _ 8,3 C 63 % 1009,0 hPa - 0,0 km/h (0 Bft) 3,7 C 8,0 C 0,0 km/h (0 Bft)
_ Max-Zeit 16:40 11:20 00:00 10:30 17:40 13:10 17:00 17:40
Maximum _ 16,2 C 94 % 1013,6 hPa 2,0 l/m 19,2 km/h
S-SW (3 Bft)
11,8 C 14,2 C 45,1 km/h
W-SW (6 Bft)
Durchschnitt _ 11,7 C 77 % 1011,0 hPa #14,2 l/m 6,2 km/h (2 Bft) 7,7 C 10,8 C 14,3 km/h (3 Bft)